createdAt,value
2022-07-31T00:02:08.614Z,101060.44
2022-07-31T00:04:35.496Z,101062.28
2022-07-31T00:07:02.541Z,101041.34
2022-07-31T00:09:52.258Z,101040.03
2022-07-31T00:12:17.702Z,101029.66
2022-07-31T00:14:45.409Z,101017.38
2022-07-31T00:17:12.355Z,101021.84
2022-07-31T00:19:39.509Z,101020.84
2022-07-31T00:22:06.292Z,101017.81
2022-07-31T00:24:33.529Z,101001.03
2022-07-31T00:27:00.470Z,100990.47
2022-07-31T00:29:27.403Z,100995.56
2022-07-31T00:31:54.078Z,100995.28
2022-07-31T00:34:20.812Z,100981.88
2022-07-31T00:36:47.578Z,100982.00
2022-07-31T00:39:14.820Z,100966.56
2022-07-31T00:41:45.841Z,100965.69
2022-07-31T00:44:14.036Z,100944.78
2022-07-31T00:46:42.140Z,100940.00
2022-07-31T00:49:12.397Z,100937.25
2022-07-31T00:51:40.287Z,100929.75
2022-07-31T00:54:08.521Z,100922.94
2022-07-31T00:56:35.679Z,100924.09
2022-07-31T00:59:03.516Z,100913.72
2022-07-31T01:01:30.898Z,100915.84
2022-07-31T01:03:58.264Z,100918.75
2022-07-31T01:06:25.385Z,100921.22
2022-07-31T01:08:52.223Z,100919.19
2022-07-31T01:11:41.245Z,100917.16
2022-07-31T01:14:09.487Z,100913.28
2022-07-31T01:16:40.859Z,100917.28
2022-07-31T01:19:43.146Z,100904.03
2022-07-31T01:22:33.600Z,100908.50
2022-07-31T01:25:11.943Z,100903.03
2022-07-31T01:28:09.603Z,100931.47
2022-07-31T01:31:25.527Z,100930.47
2022-07-31T01:33:53.670Z,100916.56
2022-07-31T01:36:24.716Z,100919.63
2022-07-31T01:38:56.192Z,100905.47
2022-07-31T01:41:28.417Z,100907.19
2022-07-31T01:43:58.259Z,100905.00
2022-07-31T01:46:27.709Z,100901.00
2022-07-31T01:48:56.515Z,100895.91
2022-07-31T01:51:25.525Z,100891.13
2022-07-31T01:53:55.814Z,100893.31
2022-07-31T01:56:23.839Z,100892.75
2022-07-31T01:58:51.448Z,100894.50
2022-07-31T02:01:20.731Z,100891.56
2022-07-31T02:03:51.457Z,100885.38
2022-07-31T02:06:25.103Z,100886.09
2022-07-31T02:08:55.482Z,100881.91
2022-07-31T02:11:23.366Z,100882.22
2022-07-31T02:13:53.241Z,100876.44
2022-07-31T02:16:21.350Z,100868.50
2022-07-31T02:18:51.144Z,100870.41
2022-07-31T02:21:18.294Z,100870.53
2022-07-31T02:23:45.131Z,100866.94
2022-07-31T02:26:13.191Z,100875.59
2022-07-31T02:28:43.778Z,100877.94
2022-07-31T02:31:12.741Z,100861.34
2022-07-31T02:33:43.287Z,100869.56
2022-07-31T02:36:12.736Z,100868.97
2022-07-31T02:38:40.833Z,100862.34
2022-07-31T02:41:09.786Z,100864.34
2022-07-31T02:43:37.690Z,100864.34
2022-07-31T02:46:06.647Z,100859.16
2022-07-31T02:48:33.322Z,100865.94
2022-07-31T02:51:00.259Z,100856.88
2022-07-31T02:53:27.320Z,100854.13
2022-07-31T02:55:55.462Z,100853.97
2022-07-31T02:58:22.430Z,100848.66
2022-07-31T03:00:58.584Z,100848.66
2022-07-31T03:03:25.701Z,100840.72
2022-07-31T03:05:52.558Z,100834.94
2022-07-31T03:08:19.598Z,100826.53
2022-07-31T03:10:47.177Z,100777.34
2022-07-31T03:13:15.949Z,100779.19
2022-07-31T03:15:50.989Z,100773.72
2022-07-31T03:18:21.634Z,100773.88
2022-07-31T03:20:52.075Z,100768.69
2022-07-31T03:23:22.101Z,100771.44
2022-07-31T03:25:50.272Z,100767.53
2022-07-31T03:28:21.512Z,100761.03
2022-07-31T03:30:51.934Z,100750.34
2022-07-31T03:33:23.463Z,100717.63
2022-07-31T03:35:50.568Z,100721.38
2022-07-31T03:38:41.184Z,100719.06
2022-07-31T03:41:04.670Z,100709.13
2022-07-31T03:43:46.807Z,100716.63
2022-07-31T03:46:17.312Z,100704.25
2022-07-31T03:48:44.833Z,100698.31
2022-07-31T03:51:13.298Z,100697.31
2022-07-31T03:53:40.691Z,100694.97
2022-07-31T03:56:07.759Z,100683.69
2022-07-31T03:58:34.707Z,100690.31
2022-07-31T04:01:08.355Z,100684.13
2022-07-31T04:03:38.868Z,100680.22
2022-07-31T04:06:05.653Z,100682.50
2022-07-31T04:08:33.673Z,100683.22
2022-07-31T04:11:00.490Z,100677.19
2022-07-31T04:13:27.379Z,100677.31
2022-07-31T04:15:54.191Z,100673.84
2022-07-31T04:18:20.926Z,100678.13
2022-07-31T04:20:47.707Z,100672.94
2022-07-31T04:23:14.489Z,100668.88
2022-07-31T04:25:41.184Z,100669.75
2022-07-31T04:28:08.041Z,100666.84
2022-07-31T04:30:34.986Z,100668.53
2022-07-31T04:33:01.670Z,100677.94
2022-07-31T04:35:28.372Z,100684.69
2022-07-31T04:37:57.548Z,100672.22
2022-07-31T04:40:26.359Z,100667.28
2022-07-31T04:42:56.446Z,100672.63
2022-07-31T04:45:23.181Z,100668.09
2022-07-31T04:47:49.941Z,100662.06
2022-07-31T04:50:16.638Z,100657.69
2022-07-31T04:52:43.345Z,100665.44
2022-07-31T04:55:10.453Z,100658.94
2022-07-31T04:57:37.317Z,100650.94
2022-07-31T05:00:06.479Z,100652.34
2022-07-31T05:02:33.272Z,100656.19
2022-07-31T05:05:00.067Z,100669.44
2022-07-31T05:07:28.807Z,100666.84
2022-07-31T05:09:56.870Z,100679.38
2022-07-31T05:12:23.590Z,100682.31
2022-07-31T05:14:50.343Z,100691.69
2022-07-31T05:17:17.279Z,100691.03
2022-07-31T05:19:43.930Z,100695.81
2022-07-31T05:22:11.618Z,100705.72
2022-07-31T05:24:38.455Z,100715.16
2022-07-31T05:27:05.547Z,100729.34
2022-07-31T05:29:33.423Z,100749.25
2022-07-31T05:32:01.088Z,100775.47
2022-07-31T05:34:31.440Z,100787.44
2022-07-31T05:37:01.187Z,100804.31
2022-07-31T05:39:28.936Z,100811.28
2022-07-31T05:41:55.642Z,100837.22
2022-07-31T05:44:22.390Z,100840.88
2022-07-31T05:49:15.894Z,100851.69
2022-07-31T05:51:43.938Z,100872.19
2022-07-31T05:54:10.873Z,100896.91
2022-07-31T05:56:37.658Z,100918.94
2022-07-31T05:59:04.533Z,100943.91
2022-07-31T06:01:31.300Z,100978.00
2022-07-31T06:03:58.022Z,101005.72
2022-07-31T06:06:25.994Z,101036.44
2022-07-31T06:08:52.754Z,101050.88
2022-07-31T06:11:19.436Z,101056.16
2022-07-31T06:13:46.167Z,101075.22
2022-07-31T06:16:14.014Z,101094.09
2022-07-31T06:18:41.900Z,101114.69
2022-07-31T06:21:08.557Z,101133.22
2022-07-31T06:23:35.314Z,101169.44
2022-07-31T06:26:02.019Z,101187.81
2022-07-31T06:28:48.045Z,101212.66
2022-07-31T06:31:19.994Z,101237.84
2022-07-31T06:33:48.510Z,101246.06
2022-07-31T06:36:16.921Z,101320.81
2022-07-31T06:38:43.604Z,101375.31
2022-07-31T06:41:10.364Z,101419.03
2022-07-31T06:43:37.401Z,101467.00
2022-07-31T06:46:04.089Z,101511.16
2022-07-31T06:48:30.752Z,101534.03
2022-07-31T06:51:28.268Z,101550.03
2022-07-31T06:53:44.180Z,101551.41
2022-07-31T06:56:10.906Z,101550.44
2022-07-31T06:58:38.096Z,101546.00
2022-07-31T07:01:04.985Z,101518.38
2022-07-31T07:03:31.852Z,101529.03
2022-07-31T07:05:58.651Z,101498.44
2022-07-31T07:08:25.551Z,101477.66
2022-07-31T07:10:52.312Z,101453.72
2022-07-31T07:13:19.071Z,101465.88
2022-07-31T07:15:46.053Z,101446.25
2022-07-31T07:18:13.213Z,101438.91
2022-07-31T07:20:40.142Z,101418.16
2022-07-31T07:23:06.865Z,101424.88
2022-07-31T07:25:33.669Z,101403.97
2022-07-31T07:28:00.457Z,101372.69
2022-07-31T07:30:30.260Z,101448.44
2022-07-31T07:32:56.950Z,101451.22
2022-07-31T07:35:23.668Z,101463.03
2022-07-31T07:37:50.377Z,101544.22
2022-07-31T07:40:17.296Z,101551.06
2022-07-31T07:42:44.906Z,101569.50
2022-07-31T07:45:12.180Z,101547.53
2022-07-31T07:47:53.701Z,101557.75
2022-07-31T07:50:29.573Z,101553.53
2022-07-31T07:52:56.798Z,101561.13
2022-07-31T07:55:24.025Z,101561.88
2022-07-31T07:57:50.721Z,101542.19
2022-07-31T08:00:17.563Z,101532.75
2022-07-31T08:03:46.988Z,101531.03
2022-07-31T08:05:32.702Z,101523.38
2022-07-31T08:07:59.789Z,101528.47
2022-07-31T08:10:26.429Z,101530.31
2022-07-31T08:12:54.803Z,101504.38
2022-07-31T08:15:21.592Z,101509.19
2022-07-31T08:17:48.368Z,101509.59
2022-07-31T08:20:15.180Z,101498.28
2022-07-31T08:22:41.871Z,101482.50
2022-07-31T08:25:09.117Z,101489.66
2022-07-31T08:27:41.885Z,101495.34
2022-07-31T08:30:09.962Z,101488.75
2022-07-31T08:32:38.527Z,101500.47
2022-07-31T08:35:05.778Z,101495.41
2022-07-31T08:37:52.406Z,101509.91
2022-07-31T08:40:20.679Z,101538.31
2022-07-31T08:42:47.494Z,101525.72
2022-07-31T08:45:15.177Z,101525.88
2022-07-31T08:47:46.091Z,101552.66
2022-07-31T08:50:15.411Z,101502.81
2022-07-31T08:52:44.741Z,101537.94
2022-07-31T08:55:24.571Z,101543.72
2022-07-31T08:57:59.211Z,101521.44
2022-07-31T09:00:26.067Z,101520.69
2022-07-31T09:02:55.154Z,101538.81
2022-07-31T09:05:21.924Z,101550.09
2022-07-31T09:07:48.632Z,101572.47
2022-07-31T09:10:23.452Z,101568.50
2022-07-31T09:12:50.230Z,101569.00
2022-07-31T09:15:28.675Z,101574.91
2022-07-31T09:17:55.962Z,101548.94
2022-07-31T09:20:30.477Z,101533.59
2022-07-31T09:23:08.432Z,101551.44
2022-07-31T09:25:35.136Z,101532.03
2022-07-31T09:28:06.804Z,101533.78
2022-07-31T09:30:33.947Z,101550.97
2022-07-31T09:33:13.959Z,101542.81
2022-07-31T09:35:50.816Z,101546.72
2022-07-31T09:38:18.455Z,101515.84
2022-07-31T09:40:57.255Z,101521.31
2022-07-31T09:43:25.950Z,101486.66
2022-07-31T09:46:02.214Z,101487.13
2022-07-31T09:48:29.700Z,101474.44
2022-07-31T09:50:59.761Z,101486.38
2022-07-31T09:53:26.829Z,101509.06
2022-07-31T09:55:56.913Z,101506.19
2022-07-31T09:58:24.401Z,101464.94
2022-07-31T10:00:53.312Z,101487.41
2022-07-31T10:03:29.881Z,101490.53
2022-07-31T10:05:58.874Z,101469.13
2022-07-31T10:08:28.054Z,101470.97
2022-07-31T10:10:57.411Z,101483.88
2022-07-31T10:13:24.728Z,101501.41
2022-07-31T10:15:54.269Z,101503.38
2022-07-31T10:18:35.932Z,101504.91
2022-07-31T10:21:06.390Z,101490.28
2022-07-31T10:23:40.634Z,101517.09
2022-07-31T10:26:09.011Z,101488.44
2022-07-31T10:28:39.650Z,101484.69
2022-07-31T10:31:06.483Z,101465.53
2022-07-31T10:33:44.221Z,101441.16
2022-07-31T10:36:19.891Z,101419.31
2022-07-31T10:39:01.661Z,101433.34
2022-07-31T10:41:47.086Z,101387.25
2022-07-31T10:44:23.330Z,101371.53
2022-07-31T10:46:50.484Z,101372.88
2022-07-31T10:49:17.347Z,101387.47
2022-07-31T10:51:51.308Z,101381.84
2022-07-31T10:54:17.977Z,101389.47
2022-07-31T10:56:47.551Z,101361.41
2022-07-31T10:59:14.716Z,101376.88
2022-07-31T11:01:53.142Z,101403.16
2022-07-31T11:04:32.843Z,101388.78
2022-07-31T11:07:00.382Z,101386.41
2022-07-31T11:09:29.152Z,101356.53
2022-07-31T11:11:56.355Z,101411.41
2022-07-31T11:14:38.839Z,101381.00
2022-07-31T11:17:05.936Z,101403.69
2022-07-31T11:19:41.646Z,101411.94
2022-07-31T11:22:31.621Z,101417.47
2022-07-31T11:25:00.835Z,101417.72
2022-07-31T11:27:34.539Z,101410.44
2022-07-31T11:30:12.846Z,101427.53
2022-07-31T11:32:41.367Z,101380.97
2022-07-31T11:35:08.975Z,101420.84
2022-07-31T11:37:56.183Z,101418.91
2022-07-31T11:40:27.422Z,101408.06
2022-07-31T11:43:23.263Z,101370.59
2022-07-31T11:45:53.237Z,101351.59
2022-07-31T11:48:26.543Z,101330.13
2022-07-31T11:50:54.676Z,101307.75
2022-07-31T11:53:21.535Z,101318.16
2022-07-31T11:55:54.045Z,101303.09
2022-07-31T11:58:22.803Z,101287.56
2022-07-31T12:00:58.213Z,101266.44
2022-07-31T12:03:30.176Z,101275.28
2022-07-31T12:05:57.232Z,101277.22
2022-07-31T12:08:25.712Z,101301.59
2022-07-31T12:10:54.115Z,101298.53
2022-07-31T12:13:22.150Z,101286.31
2022-07-31T12:15:58.147Z,101281.78
2022-07-31T12:18:28.508Z,101261.59
2022-07-31T12:21:03.275Z,101314.75
2022-07-31T12:24:03.046Z,101282.81
2022-07-31T12:26:33.597Z,101257.69
2022-07-31T12:29:07.133Z,101254.81
2022-07-31T12:31:51.263Z,101297.19
2022-07-31T12:34:38.285Z,101315.34
2022-07-31T12:37:06.654Z,101324.59
2022-07-31T12:40:00.395Z,101334.56
2022-07-31T12:42:40.638Z,101325.69
2022-07-31T12:45:18.527Z,101288.41
2022-07-31T12:47:52.078Z,101260.00
2022-07-31T12:50:24.185Z,101238.91
2022-07-31T12:52:51.657Z,101245.34
2022-07-31T12:55:18.481Z,101253.63
2022-07-31T12:57:51.796Z,101245.72
2022-07-31T13:00:24.140Z,101219.22
2022-07-31T13:02:52.755Z,101226.25
2022-07-31T13:05:20.019Z,101228.00
2022-07-31T13:07:47.146Z,101238.31
2022-07-31T13:10:20.300Z,101222.19
2022-07-31T13:12:52.452Z,101221.47
2022-07-31T13:15:22.538Z,101185.47
2022-07-31T13:17:50.727Z,101214.72
2022-07-31T13:20:18.708Z,101203.78
2022-07-31T13:22:45.508Z,101173.88
2022-07-31T13:25:12.269Z,101156.63
2022-07-31T13:27:39.542Z,101193.59
2022-07-31T13:30:09.220Z,101209.06
2022-07-31T13:32:36.078Z,101220.28
2022-07-31T13:35:24.302Z,101219.66
2022-07-31T13:37:50.343Z,101194.34
2022-07-31T13:40:19.060Z,101206.84
2022-07-31T13:42:45.849Z,101207.91
2022-07-31T13:45:12.719Z,101224.63
2022-07-31T13:47:50.904Z,101210.03
2022-07-31T13:50:19.763Z,101238.00
2022-07-31T13:52:46.494Z,101226.75
2022-07-31T13:55:13.206Z,101242.97
2022-07-31T13:57:40.005Z,101241.13
2022-07-31T14:00:07.461Z,101245.66
2022-07-31T14:02:34.376Z,101237.47
2022-07-31T14:05:01.230Z,101237.88
2022-07-31T14:07:45.727Z,101247.03
2022-07-31T14:10:19.893Z,101239.53
2022-07-31T14:12:47.059Z,101233.06
2022-07-31T14:15:13.886Z,101257.94
2022-07-31T14:17:40.602Z,101242.59
2022-07-31T14:20:07.921Z,101253.47
2022-07-31T14:22:34.732Z,101260.56
2022-07-31T14:25:01.465Z,101269.69
2022-07-31T14:27:28.347Z,101274.28
2022-07-31T14:29:55.302Z,101259.72
2022-07-31T14:32:22.472Z,101267.19
2022-07-31T14:34:50.211Z,101265.75
2022-07-31T14:37:17.388Z,101268.97
2022-07-31T14:39:44.324Z,101254.03
2022-07-31T14:42:11.505Z,101253.13
2022-07-31T14:44:41.870Z,101260.53
2022-07-31T14:47:10.300Z,101254.13
2022-07-31T14:50:09.628Z,101268.31
2022-07-31T14:52:24.293Z,101266.97
2022-07-31T14:54:54.187Z,101282.44
2022-07-31T14:57:22.486Z,101271.63
2022-07-31T14:59:50.480Z,101271.03
2022-07-31T15:02:22.151Z,101275.91
2022-07-31T15:04:50.005Z,101300.28
2022-07-31T15:10:05.698Z,101315.06
2022-07-31T15:12:33.183Z,101319.97
2022-07-31T15:15:00.101Z,101330.31
2022-07-31T15:17:27.078Z,101334.91
2022-07-31T15:19:53.805Z,101336.00
2022-07-31T15:22:20.717Z,101323.91
2022-07-31T15:24:49.926Z,101339.34
2022-07-31T15:27:21.982Z,101335.41
2022-07-31T15:30:04.404Z,101336.78
2022-07-31T15:32:34.136Z,101331.09
2022-07-31T15:35:00.983Z,101334.41
2022-07-31T15:37:27.655Z,101339.75
2022-07-31T15:40:03.070Z,101344.56
2022-07-31T15:42:34.113Z,101356.16
2022-07-31T15:45:00.947Z,101352.72
2022-07-31T15:47:27.754Z,101352.50
2022-07-31T15:49:56.428Z,101360.25
2022-07-31T15:52:23.735Z,101362.97
2022-07-31T15:54:52.291Z,101360.03
2022-07-31T15:57:23.031Z,101358.94
2022-07-31T15:59:50.651Z,101352.31
2022-07-31T16:02:17.931Z,101350.53
2022-07-31T16:04:53.345Z,101347.56
2022-07-31T16:08:29.638Z,101334.41
2022-07-31T16:10:15.185Z,101327.97
2022-07-31T16:12:47.795Z,101323.09
2022-07-31T16:15:16.721Z,101307.66
2022-07-31T16:17:43.988Z,101293.69
2022-07-31T16:20:12.822Z,101288.59
2022-07-31T16:22:41.365Z,101275.72
2022-07-31T16:25:09.921Z,101273.78
2022-07-31T16:27:37.385Z,101260.22
2022-07-31T16:30:05.661Z,101249.34
2022-07-31T16:32:33.051Z,101244.72
2022-07-31T16:35:01.208Z,101236.94
2022-07-31T16:37:51.326Z,101226.78
2022-07-31T16:40:30.028Z,101217.25
2022-07-31T16:43:00.978Z,101206.41
2022-07-31T16:45:28.440Z,101203.78
2022-07-31T16:47:55.192Z,101179.41
2022-07-31T16:50:22.159Z,101159.16
2022-07-31T16:52:52.733Z,101149.59
2022-07-31T16:55:21.143Z,101124.38
2022-07-31T16:58:11.089Z,101114.38
2022-07-31T17:00:39.133Z,101101.25
2022-07-31T17:03:06.121Z,101088.34
2022-07-31T17:05:32.928Z,101058.81
2022-07-31T17:07:59.695Z,101033.84
2022-07-31T17:10:27.148Z,101015.50
2022-07-31T17:12:56.449Z,101009.91
2022-07-31T17:15:23.234Z,101002.53
2022-07-31T17:17:50.425Z,100985.25
2022-07-31T17:20:23.494Z,100988.16
2022-07-31T17:22:54.592Z,100936.13
2022-07-31T17:25:22.439Z,100926.13
2022-07-31T17:27:49.417Z,100905.81
2022-07-31T17:30:16.224Z,100895.31
2022-07-31T17:32:42.956Z,100891.16
2022-07-31T17:35:10.104Z,100881.88
2022-07-31T17:37:40.711Z,100869.47
2022-07-31T17:40:27.308Z,100862.56
2022-07-31T17:42:55.288Z,100858.25
2022-07-31T17:45:21.990Z,100851.53
2022-07-31T17:47:49.026Z,100847.75
2022-07-31T17:50:30.557Z,100837.69
2022-07-31T17:52:57.220Z,100819.88
2022-07-31T17:55:23.982Z,100814.69
2022-07-31T17:57:50.688Z,100799.56
2022-07-31T18:00:19.334Z,100802.63
2022-07-31T18:02:46.115Z,100795.88
2022-07-31T18:05:13.010Z,100788.84
2022-07-31T18:07:40.265Z,100791.41
2022-07-31T18:10:09.370Z,100763.34
2022-07-31T18:12:56.825Z,100765.03
2022-07-31T18:15:23.089Z,100738.03
2022-07-31T18:18:02.445Z,100729.97
2022-07-31T18:20:29.215Z,100724.09
2022-07-31T18:22:58.474Z,100726.13
2022-07-31T18:25:27.031Z,100720.13
2022-07-31T18:27:57.111Z,100707.72
2022-07-31T18:30:23.885Z,100708.06
2022-07-31T18:32:57.132Z,100694.94
2022-07-31T18:35:23.755Z,100707.13
2022-07-31T18:37:50.529Z,100688.22
2022-07-31T18:40:17.273Z,100676.72
2022-07-31T18:42:44.004Z,100672.06
2022-07-31T18:45:11.022Z,100673.13
2022-07-31T18:47:37.714Z,100672.97
2022-07-31T18:50:59.053Z,100669.69
2022-07-31T18:52:52.073Z,100673.31
2022-07-31T18:55:18.867Z,100657.81
2022-07-31T18:57:45.620Z,100657.16
2022-07-31T19:00:12.797Z,100652.53
2022-07-31T19:02:39.568Z,100658.53
2022-07-31T19:05:07.548Z,100653.34
2022-07-31T19:07:40.425Z,100648.38
2022-07-31T19:10:07.969Z,100643.72
2022-07-31T19:12:35.949Z,100637.66
2022-07-31T19:15:03.542Z,100640.81
2022-07-31T19:17:44.136Z,100644.59
2022-07-31T19:20:12.616Z,100639.59
2022-07-31T19:22:59.246Z,100642.34
2022-07-31T19:25:26.000Z,100637.88
2022-07-31T19:27:52.693Z,100633.56
2022-07-31T19:30:20.175Z,100629.78
2022-07-31T19:32:46.890Z,100629.94
2022-07-31T19:35:13.743Z,100630.97
2022-07-31T19:37:40.853Z,100633.56
2022-07-31T19:40:08.774Z,100641.84
2022-07-31T19:42:35.827Z,100637.03
2022-07-31T19:45:02.839Z,100631.31
2022-07-31T19:47:29.563Z,100630.09
2022-07-31T19:49:56.224Z,100632.16
2022-07-31T19:52:22.971Z,100628.03
2022-07-31T19:54:49.660Z,100630.63
2022-07-31T19:57:16.450Z,100623.59
2022-07-31T19:59:45.040Z,100619.75
2022-07-31T20:02:16.715Z,100624.78
2022-07-31T20:04:43.732Z,100618.03
2022-07-31T20:07:10.859Z,100620.31
2022-07-31T20:09:37.578Z,100610.81
2022-07-31T20:12:04.755Z,100605.31
2022-07-31T20:14:31.653Z,100559.53
2022-07-31T20:16:58.374Z,100553.84
2022-07-31T20:19:25.153Z,100546.63
2022-07-31T20:21:51.996Z,100547.50
2022-07-31T20:24:18.806Z,100542.50
2022-07-31T20:26:45.617Z,100525.09
2022-07-31T20:29:12.444Z,100520.31
2022-07-31T20:31:39.235Z,100520.81
2022-07-31T20:34:06.003Z,100516.19
2022-07-31T20:36:32.671Z,100516.50
2022-07-31T20:39:00.151Z,100511.50
2022-07-31T20:41:29.629Z,100514.44
2022-07-31T20:43:56.479Z,100505.47
2022-07-31T20:46:23.454Z,100505.81
2022-07-31T20:48:50.415Z,100498.09
2022-07-31T20:51:23.384Z,100490.00
2022-07-31T20:53:51.837Z,100490.53
2022-07-31T20:56:19.013Z,100488.63
2022-07-31T20:58:51.431Z,100490.00
2022-07-31T21:01:20.192Z,100493.97
2022-07-31T21:03:47.778Z,100487.44
2022-07-31T21:06:14.661Z,100489.50
2022-07-31T21:08:41.646Z,100486.22
2022-07-31T21:11:08.788Z,100483.81
2022-07-31T21:13:36.290Z,100470.56
2022-07-31T21:16:03.996Z,100462.44
2022-07-31T21:18:35.830Z,100472.31
2022-07-31T21:21:04.682Z,100470.06
2022-07-31T21:23:31.580Z,100468.53
2022-07-31T21:25:58.925Z,100467.84
2022-07-31T21:28:27.891Z,100468.88
2022-07-31T21:30:56.518Z,100476.59
2022-07-31T21:33:27.776Z,100470.41
2022-07-31T21:35:55.339Z,100463.19
2022-07-31T21:38:22.403Z,100456.97
2022-07-31T21:40:49.766Z,100466.63
2022-07-31T21:43:22.159Z,100456.66
2022-07-31T21:45:57.348Z,100452.69
2022-07-31T21:48:29.958Z,100449.75
2022-07-31T21:50:56.921Z,100442.19
2022-07-31T21:53:24.579Z,100443.75
2022-07-31T21:55:51.780Z,100444.09
2022-07-31T21:58:18.721Z,100435.84
2022-07-31T22:00:45.776Z,100435.16
2022-07-31T22:03:12.776Z,100431.72
2022-07-31T22:05:58.123Z,100436.69
2022-07-31T22:08:24.887Z,100424.31
2022-07-31T22:10:52.012Z,100421.38
2022-07-31T22:13:19.706Z,100414.84
2022-07-31T22:15:51.299Z,100420.53
2022-07-31T22:18:34.365Z,100414.31
2022-07-31T22:21:05.048Z,100400.34
2022-07-31T22:23:32.220Z,100404.53
2022-07-31T22:25:59.305Z,100408.84
2022-07-31T22:28:27.184Z,100412.94
2022-07-31T22:30:55.133Z,100407.78
2022-07-31T22:33:22.438Z,100402.44
2022-07-31T22:35:58.374Z,100405.03
2022-07-31T22:38:27.543Z,100412.59
2022-07-31T22:40:54.316Z,100401.38
2022-07-31T22:44:12.246Z,100403.31
2022-07-31T22:46:09.904Z,100401.59
2022-07-31T22:48:40.207Z,100387.81
2022-07-31T22:51:07.716Z,100398.28
2022-07-31T22:53:35.045Z,100398.16
2022-07-31T22:56:02.046Z,100398.31
2022-07-31T22:58:28.939Z,100406.75
2022-07-31T23:00:56.378Z,100388.19
2022-07-31T23:03:23.242Z,100383.00
2022-07-31T23:06:12.199Z,100379.72
2022-07-31T23:08:36.740Z,100374.06
2022-07-31T23:11:03.485Z,100373.88
2022-07-31T23:13:30.263Z,100375.44
2022-07-31T23:15:56.967Z,100369.59
2022-07-31T23:18:23.710Z,100364.97
2022-07-31T23:20:50.524Z,100364.09
2022-07-31T23:23:17.178Z,100369.94
2022-07-31T23:25:43.986Z,100367.56
2022-07-31T23:28:10.701Z,100353.28
2022-07-31T23:30:37.454Z,100345.22
2022-07-31T23:33:04.341Z,100326.63
2022-07-31T23:35:31.057Z,100314.59
2022-07-31T23:37:57.789Z,100323.88
2022-07-31T23:40:24.576Z,100319.72
2022-07-31T23:42:51.230Z,100315.44
2022-07-31T23:45:17.935Z,100308.22
2022-07-31T23:47:46.917Z,100263.72
2022-07-31T23:50:15.395Z,100249.78
2022-07-31T23:52:42.893Z,100294.81
2022-07-31T23:55:10.073Z,100276.59
2022-07-31T23:57:37.031Z,100279.16
